Terminal Aerodrome Forecast
Issued by NWS

Home | Current Version | Previous Version | Text Only | Print | Product List | Glossary On
Versions: 1 2 3 4 5 6 7 8 9 10 11 12 13 14 15 16 17 18 19 20 21 22 23 24
297
FTUS45 KGJT 130531
TAFCNY
TAF
KCNY 130531Z 1306/1406 23003KT P6SM SKC
     FM131400 32004KT P6SM FEW250
     FM131900 27005KT P6SM SCT150 SCT250
     FM140100 32005KT P6SM SCT140 BKN250=

USA.gov is the U.S. government's official web portal to all federal, state and local government web resources and services.